Time;durP1;ratioP1;P1;durP2;ratioP2;P2;SDS_P1;SDS_P2;PMS_P1;PMS_P2;Temp;Humidity;BMP_temperature;BMP_pressure;BME280_temperature;BME280_humidity;BME280_pressure;Samples;Min_cycle;Max_cycle;Signal;HPM_P1;HPM_P2
2024/04/21 00:01:44;;;;;;;;;;;;;;;21.65;28.92;97160.97;5383961;26;1826;-76
2024/04/21 00:04:09;;;;;;;;;;;;;;;21.53;29.09;97164.72;5383830;26;902;-75
2024/04/21 00:06:35;;;;;;;;;;;;;;;21.64;28.78;97175.59;5383870;26;1011;-77
2024/04/21 00:09:00;;;;;;;;;;;;;;;21.73;28.70;97176.44;5354795;26;972;-75
2024/04/21 00:11:26;;;;;;;;;;;;;;;21.52;28.92;97177.28;5354781;26;1040;-77
2024/04/21 00:13:51;;;;;;;;;;;;;;;21.58;28.78;97183.94;5354462;26;1117;-75
2024/04/21 00:16:17;;;;;;;;;;;;;;;21.75;28.73;97181.63;5385568;26;942;-76
2024/04/21 00:18:42;;;;;;;;;;;;;;;21.71;28.60;97186.63;5383804;26;929;-75
2024/04/21 00:21:08;;;;;;;;;;;;;;;21.67;28.62;97192.47;5383697;26;1834;-75
2024/04/21 00:23:36;;;;;;;;;;;;;;;21.51;28.97;97187.03;5354831;26;1000;-75
2024/04/21 00:26:02;;;;;;;;;;;;;;;21.53;28.90;97195.84;5382565;26;1003;-76
2024/04/21 00:28:30;;;;;;;;;;;;;;;21.81;28.33;97196.75;5384166;26;973;-76
2024/04/21 00:30:56;;;;;;;;;;;;;;;21.63;28.84;97191.03;5383737;26;994;-76
2024/04/21 00:33:22;;;;;;;;;;;;;;;21.57;28.99;97193.69;5354491;26;957;-76
2024/04/21 00:35:47;;;;;;;;;;;;;;;21.79;28.66;97194.41;5383673;26;1068;-76
2024/04/21 00:38:14;;;;;;;;;;;;;;;21.64;28.89;97199.03;5354359;26;919;-75
2024/04/21 00:40:39;;;;;;;;;;;;;;;21.35;29.05;97202.22;5352535;26;1890;-76
2024/04/21 00:43:05;;;;;;;;;;;;;;;21.64;28.67;97201.88;5381913;26;970;-76
2024/04/21 00:45:30;;;;;;;;;;;;;;;21.64;28.78;97199.03;5346893;26;920;-76
2024/04/21 00:47:56;;;;;;;;;;;;;;;21.57;28.73;97202.16;5318040;26;1174;-75
2024/04/21 00:50:21;;;;;;;;;;;;;;;21.59;28.71;97202.47;5289521;26;1124;-76
2024/04/21 00:52:47;;;;;;;;;;;;;;;21.73;28.66;97195.47;5318233;26;1127;-76
2024/04/21 00:55:13;;;;;;;;;;;;;;;21.74;28.58;97192.16;5289964;26;1026;-75
2024/04/21 00:57:38;;;;;;;;;;;;;;;21.62;28.79;97195.91;5289707;26;1106;-76
2024/04/21 01:00:04;;;;;;;;;;;;;;;21.77;28.54;97196.13;5318038;26;1842;-75
2024/04/21 01:02:29;;;;;;;;;;;;;;;21.64;28.83;97192.59;5261465;26;1242;-75
2024/04/21 01:04:55;;;;;;;;;;;;;;;21.64;28.85;97196.22;5346660;26;940;-76
2024/04/21 01:07:20;;;;;;;;;;;;;;;21.75;28.51;97199.41;5317711;26;1141;-76
2024/04/21 01:09:46;;;;;;;;;;;;;;;21.65;28.62;97200.63;5318123;26;886;-75
2024/04/21 01:12:11;;;;;;;;;;;;;;;21.48;28.98;97207.78;5317942;26;900;-76
2024/04/21 01:14:37;;;;;;;;;;;;;;;21.42;28.98;97201.94;5317987;26;1191;-77
2024/04/21 01:17:03;;;;;;;;;;;;;;;21.59;28.97;97208.94;5373849;26;918;-76
2024/04/21 01:19:28;;;;;;;;;;;;;;;21.78;28.50;97215.47;5383113;26;957;-76
2024/04/21 01:21:54;;;;;;;;;;;;;;;21.79;28.56;97213.44;5353592;26;1829;-75
2024/04/21 01:24:19;;;;;;;;;;;;;;;21.51;28.97;97213.31;5352250;26;994;-76
2024/04/21 01:26:45;;;;;;;;;;;;;;;21.68;28.61;97204.56;5381216;26;1093;-76
2024/04/21 01:29:10;;;;;;;;;;;;;;;21.58;28.88;97207.34;5352368;26;905;-75
2024/04/21 01:31:36;;;;;;;;;;;;;;;21.64;28.87;97209.59;5352155;26;1180;-75
2024/04/21 01:34:01;;;;;;;;;;;;;;;21.75;28.44;97219.22;5322816;26;1118;-77
2024/04/21 01:36:27;;;;;;;;;;;;;;;21.80;28.60;97218.63;5351884;26;1208;-76
2024/04/21 01:38:52;;;;;;;;;;;;;;;21.75;28.48;97222.06;5351596;26;1133;-75
2024/04/21 01:41:18;;;;;;;;;;;;;;;21.58;28.86;97220.72;5323530;26;1854;-76
2024/04/21 01:43:43;;;;;;;;;;;;;;;21.72;28.50;97223.00;5352022;26;972;-76
2024/04/21 01:46:09;;;;;;;;;;;;;;;21.67;28.56;97217.94;5352238;26;1347;-76
2024/04/21 01:48:34;;;;;;;;;;;;;;;21.65;28.65;97217.59;5322854;26;1235;-75
2024/04/21 01:51:00;;;;;;;;;;;;;;;21.45;28.92;97215.16;5380994;26;921;-75
2024/04/21 01:53:25;;;;;;;;;;;;;;;21.45;28.90;97225.66;5294604;26;1114;-75
2024/04/21 01:55:51;;;;;;;;;;;;;;;21.47;28.76;97223.19;5371909;26;974;-75
2024/04/21 01:58:17;;;;;;;;;;;;;;;21.67;28.67;97231.31;5382447;26;956;-75
2024/04/21 02:00:42;;;;;;;;;;;;;;;21.47;28.91;97229.63;5382001;26;1849;-76
2024/04/21 02:03:08;;;;;;;;;;;;;;;21.51;28.67;97235.16;5384062;26;1550;-76
2024/04/21 02:05:33;;;;;;;;;;;;;;;21.70;28.54;97239.66;5382171;26;995;-76
2024/04/21 02:07:59;;;;;;;;;;;;;;;21.51;28.64;97235.16;5382314;26;916;-75
2024/04/21 02:10:24;;;;;;;;;;;;;;;21.39;28.78;97236.00;5383809;26;909;-75
2024/04/21 02:12:50;;;;;;;;;;;;;;;21.45;28.66;97234.97;5382253;26;924;-75
2024/04/21 02:15:15;;;;;;;;;;;;;;;21.58;28.47;97234.88;5411401;26;1170;-75
2024/04/21 02:17:41;;;;;;;;;;;;;;;21.76;28.20;97228.50;5411434;26;1298;-75
2024/04/21 02:20:07;;;;;;;;;;;;;;;21.46;28.69;97221.59;5353038;26;1851;-75
2024/04/21 02:22:33;;;;;;;;;;;;;;;21.35;29.01;97239.00;5352734;26;984;-76
2024/04/21 02:24:58;;;;;;;;;;;;;;;21.58;28.55;97240.53;5382027;26;982;-76
2024/04/21 02:27:24;;;;;;;;;;;;;;;21.57;28.76;97233.31;5352389;26;1236;-76
2024/04/21 02:29:50;;;;;;;;;;;;;;;21.68;28.37;97239.34;5383215;26;944;-76
2024/04/21 02:32:15;;;;;;;;;;;;;;;21.95;28.05;97240.72;5381522;26;1148;-76
2024/04/21 02:34:41;;;;;;;;;;;;;;;21.82;28.19;97238.78;5385868;26;1046;-76
2024/04/21 02:37:06;;;;;;;;;;;;;;;21.71;28.39;97244.09;5385847;26;1130;-76
2024/04/21 02:39:32;;;;;;;;;;;;;;;21.67;28.44;97254.75;5386006;26;1068;-76
2024/04/21 02:41:57;;;;;;;;;;;;;;;21.69;28.67;97257.91;5386171;26;1825;-76
2024/04/21 02:44:23;;;;;;;;;;;;;;;21.68;28.43;97266.88;5385916;26;1073;-76
2024/04/21 02:46:48;;;;;;;;;;;;;;;21.43;29.05;97267.81;5386074;26;1240;-75
2024/04/21 02:49:14;;;;;;;;;;;;;;;21.51;28.71;97267.09;5386545;26;1349;-76
2024/04/21 02:51:39;;;;;;;;;;;;;;;21.81;28.37;97276.84;5389483;26;1207;-75
2024/04/21 02:54:05;;;;;;;;;;;;;;;21.37;29.14;97275.31;5389200;26;1114;-75
2024/04/21 02:56:30;;;;;;;;;;;;;;;21.78;28.57;97277.78;5419148;26;978;-75
2024/04/21 02:58:56;;;;;;;;;;;;;;;21.55;28.76;97281.91;5360026;26;1111;-76
2024/04/21 03:01:21;;;;;;;;;;;;;;;21.62;28.58;97286.50;5389891;26;1846;-76
2024/04/21 03:03:47;;;;;;;;;;;;;;;21.47;28.65;97286.22;5418990;26;947;-73
2024/04/21 03:06:12;;;;;;;;;;;;;;;21.37;28.92;97293.09;5384563;26;1213;-73
2024/04/21 03:08:38;;;;;;;;;;;;;;;21.44;29.15;97289.19;5326849;26;1335;-73
2024/04/21 03:11:03;;;;;;;;;;;;;;;21.77;28.63;97287.53;5379705;26;1020;-74
2024/04/21 03:13:29;;;;;;;;;;;;;;;21.72;28.40;97288.13;5384927;26;1115;-73
2024/04/21 03:15:54;;;;;;;;;;;;;;;21.48;29.00;97289.84;5384466;26;1267;-74
2024/04/21 03:18:20;;;;;;;;;;;;;;;21.41;28.77;97242.03;5414214;26;920;-74
2024/04/21 03:20:58;;;;;;;;;;;;;;;21.65;28.72;97291.22;5326646;26;1818;-73
2024/04/21 03:23:23;;;;;;;;;;;;;;;21.83;28.57;97302.66;5384545;26;1049;-74
2024/04/21 03:25:49;;;;;;;;;;;;;;;22.05;28.15;97296.16;5355078;26;1269;-73
2024/04/21 03:28:15;;;;;;;;;;;;;;;21.73;28.70;97294.56;5355343;26;1142;-74
2024/04/21 03:30:40;;;;;;;;;;;;;;;21.57;29.08;97295.59;5384503;26;968;-73
2024/04/21 03:33:06;;;;;;;;;;;;;;;21.74;28.66;97294.09;5383723;26;1274;-75
2024/04/21 03:35:32;;;;;;;;;;;;;;;21.97;28.49;97300.53;5354930;26;1235;-75
2024/04/21 03:37:58;;;;;;;;;;;;;;;21.62;29.10;97295.00;5318616;26;1091;-75
2024/04/21 03:40:23;;;;;;;;;;;;;;;22.02;28.30;97308.41;5293286;26;2433;-74
2024/04/21 03:42:49;;;;;;;;;;;;;;;21.93;28.63;97305.53;5313275;26;1152;-75
2024/04/21 03:45:14;;;;;;;;;;;;;;;21.83;28.77;97314.00;5285013;27;1192;-75
2024/04/21 03:47:40;;;;;;;;;;;;;;;21.73;29.13;97314.41;5279947;26;1844;-75
2024/04/21 03:50:05;;;;;;;;;;;;;;;21.53;29.44;97318.34;5319018;26;973;-74
2024/04/21 03:52:31;;;;;;;;;;;;;;;21.99;28.70;97321.47;5291166;27;2442;-75
2024/04/21 03:54:57;;;;;;;;;;;;;;;21.92;28.94;97321.75;5279149;27;1918;-74
2024/04/21 03:57:27;;;;;;;;;;;;;;;21.85;28.82;97319.97;5251208;27;987;-75
2024/04/21 03:59:52;;;;;;;;;;;;;;;21.56;29.33;97316.66;5279019;27;937;-75
2024/04/21 04:02:18;;;;;;;;;;;;;;;21.70;29.33;97321.75;5278778;27;1830;-75
2024/04/21 04:04:44;;;;;;;;;;;;;;;21.87;28.97;97310.25;5279227;27;972;-74
2024/04/21 04:07:09;;;;;;;;;;;;;;;22.01;28.63;97312.50;5254497;27;2024;-74
2024/04/21 04:09:35;;;;;;;;;;;;;;;21.91;28.80;97319.38;5301363;26;1190;-74
2024/04/21 04:12:00;;;;;;;;;;;;;;;21.57;29.48;97326.72;5277111;26;1708;-74
2024/04/21 04:14:26;;;;;;;;;;;;;;;21.83;28.97;97324.53;5382015;26;2061;-75
2024/04/21 04:16:51;;;;;;;;;;;;;;;22.09;28.63;97325.94;5349371;26;2026;-74
2024/04/21 04:19:17;;;;;;;;;;;;;;;21.87;28.84;97330.06;5295733;26;1126;-75
2024/04/21 04:21:42;;;;;;;;;;;;;;;21.78;28.94;97328.75;5295740;26;1846;-74
2024/04/21 04:24:08;;;;;;;;;;;;;;;21.87;28.89;97330.06;5345492;26;1238;-75
2024/04/21 04:26:33;;;;;;;;;;;;;;;21.78;29.12;97337.25;5406931;26;1014;-75
2024/04/21 04:28:59;;;;;;;;;;;;;;;21.96;28.68;97330.88;5457152;26;1082;-74
2024/04/21 04:31:24;;;;;;;;;;;;;;;21.97;28.67;97335.31;5423665;26;2083;-74
2024/04/21 04:33:51;;;;;;;;;;;;;;;21.52;29.55;97327.31;5455220;26;1810;-74
2024/04/21 04:36:17;;;;;;;;;;;;;;;21.67;29.16;97339.69;5425630;26;889;-74
2024/04/21 04:38:42;;;;;;;;;;;;;;;21.72;29.10;97341.94;5424574;26;1101;-74
2024/04/21 04:41:08;;;;;;;;;;;;;;;21.56;29.34;97339.31;5395525;26;1834;-74
2024/04/21 04:43:34;;;;;;;;;;;;;;;21.84;28.82;97349.53;5425113;26;920;-75
2024/04/21 04:45:59;;;;;;;;;;;;;;;21.70;29.05;97350.06;5423815;26;2089;-75
2024/04/21 04:48:25;;;;;;;;;;;;;;;21.95;28.57;97354.81;5309190;26;2238;-75
2024/04/21 04:50:51;;;;;;;;;;;;;;;21.64;28.92;97362.47;5382020;26;951;-74
2024/04/21 04:53:16;;;;;;;;;;;;;;;21.66;29.03;97357.94;5352911;26;3247;-74
2024/04/21 04:55:44;;;;;;;;;;;;;;;21.53;29.22;97357.97;5381804;26;1345;-75
2024/04/21 04:58:10;;;;;;;;;;;;;;;21.55;29.04;97371.66;5382050;26;956;-74
2024/04/21 05:00:35;;;;;;;;;;;;;;;21.63;29.05;97367.34;5381686;26;1826;-74
2024/04/21 05:03:01;;;;;;;;;;;;;;;21.65;28.72;97369.69;5382056;26;941;-75
2024/04/21 05:05:26;;;;;;;;;;;;;;;21.71;28.77;97368.66;5352322;26;1556;-74
2024/04/21 05:07:52;;;;;;;;;;;;;;;21.63;28.94;97367.34;5352417;26;1444;-75
2024/04/21 05:10:17;;;;;;;;;;;;;;;21.44;29.11;97371.25;5381874;26;1478;-74
2024/04/21 05:12:45;;;;;;;;;;;;;;;21.18;29.19;97368.50;5380960;26;979;-75
2024/04/21 05:15:10;;;;;;;;;;;;;;;21.56;28.58;97361.94;5352713;26;909;-74
2024/04/21 05:17:36;;;;;;;;;;;;;;;21.60;28.72;97362.59;5381862;26;1040;-75
2024/04/21 05:20:01;;;;;;;;;;;;;;;21.53;28.76;97362.84;5376968;26;1149;-74
2024/04/21 05:22:27;;;;;;;;;;;;;;;21.42;28.95;97363.25;5455721;26;1851;-74
2024/04/21 05:24:52;;;;;;;;;;;;;;;21.54;28.68;97368.06;5416463;26;1332;-75
2024/04/21 05:27:18;;;;;;;;;;;;;;;21.44;28.93;97362.78;5385591;26;1517;-74
2024/04/21 05:29:43;;;;;;;;;;;;;;;21.52;28.64;97362.06;5390991;26;1110;-75
2024/04/21 05:32:09;;;;;;;;;;;;;;;21.50;28.72;97361.75;5424519;26;894;-74
2024/04/21 05:34:36;;;;;;;;;;;;;;;21.61;28.37;97367.03;5389667;26;2077;-74
2024/04/21 05:37:01;;;;;;;;;;;;;;;21.43;28.96;97369.69;5388641;26;869;-75
2024/04/21 05:39:27;;;;;;;;;;;;;;;21.44;28.96;97368.44;5419940;26;887;-75
2024/04/21 05:41:53;;;;;;;;;;;;;;;21.42;28.79;97373.78;5388758;26;1866;-75
2024/04/21 05:44:18;;;;;;;;;;;;;;;21.42;28.81;97380.22;5325389;26;2074;-75
2024/04/21 05:46:44;;;;;;;;;;;;;;;21.57;28.41;97369.97;5352239;26;1112;-76
2024/04/21 05:49:09;;;;;;;;;;;;;;;21.47;28.62;97376.03;5352233;26;947;-74
2024/04/21 05:51:35;;;;;;;;;;;;;;;21.54;28.62;97370.88;5323251;26;956;-75
2024/04/21 05:54:01;;;;;;;;;;;;;;;21.50;28.89;97375.91;5351778;26;1094;-74
2024/04/21 05:56:27;;;;;;;;;;;;;;;21.63;28.47;97384.31;5351800;26;933;-75
2024/04/21 05:58:53;;;;;;;;;;;;;;;21.29;28.86;97391.53;5344117;26;2067;-74
2024/04/21 06:01:18;;;;;;;;;;;;;;;21.28;28.90;97398.47;5317153;26;1831;-75
2024/04/21 06:03:44;;;;;;;;;;;;;;;21.41;28.77;97406.16;5317420;26;967;-74
2024/04/21 06:06:09;;;;;;;;;;;;;;;21.51;28.37;97399.34;5288680;26;969;-75
2024/04/21 06:08:35;;;;;;;;;;;;;;;21.47;28.68;97398.66;5346200;26;1328;-75
2024/04/21 06:11:00;;;;;;;;;;;;;;;21.36;28.79;97398.25;5288699;26;880;-75
2024/04/21 06:13:26;;;;;;;;;;;;;;;21.42;28.50;97399.25;5340458;26;2866;-75
2024/04/21 06:15:52;;;;;;;;;;;;;;;21.46;28.50;97397.09;5307320;26;1327;-74
2024/04/21 06:18:17;;;;;;;;;;;;;;;21.43;28.46;97410.09;5282088;27;1182;-75
2024/04/21 06:20:43;;;;;;;;;;;;;;;21.31;28.56;97408.91;5309862;27;2006;-74
2024/04/21 06:23:08;;;;;;;;;;;;;;;21.65;28.02;97418.63;5311186;27;958;-75
2024/04/21 06:25:34;;;;;;;;;;;;;;;21.43;28.32;97409.31;5313753;27;1197;-75
2024/04/21 06:27:59;;;;;;;;;;;;;;;21.31;28.49;97408.91;5314236;27;948;-75
2024/04/21 06:30:25;;;;;;;;;;;;;;;21.36;28.61;97403.91;5314532;27;1079;-75
2024/04/21 06:32:50;;;;;;;;;;;;;;;21.33;28.61;97412.06;5313624;27;2048;-75
2024/04/21 06:35:16;;;;;;;;;;;;;;;21.39;28.57;97409.44;5312144;27;2162;-74
2024/04/21 06:37:41;;;;;;;;;;;;;;;21.23;28.82;97410.34;5314079;27;954;-74
2024/04/21 06:40:07;;;;;;;;;;;;;;;21.28;28.86;97415.44;5313371;27;1934;-74
2024/04/21 06:42:33;;;;;;;;;;;;;;;21.31;28.64;97419.44;5314209;27;1028;-74
2024/04/21 06:44:58;;;;;;;;;;;;;;;21.36;28.52;97412.41;5309581;26;1179;-75
2024/04/21 06:47:24;;;;;;;;;;;;;;;21.43;28.30;97410.09;5348678;26;989;-74
2024/04/21 06:49:49;;;;;;;;;;;;;;;21.33;28.41;97423.38;5308380;26;1716;-75
2024/04/21 06:52:15;;;;;;;;;;;;;;;21.39;28.44;97420.75;5319762;26;908;-74
2024/04/21 06:54:40;;;;;;;;;;;;;;;21.53;28.13;97419.47;5313504;27;1162;-75
2024/04/21 06:57:06;;;;;;;;;;;;;;;21.26;28.51;97417.94;5285610;27;971;-74
2024/04/21 06:59:31;;;;;;;;;;;;;;;21.33;28.30;97423.38;5190499;27;1053;-74
2024/04/21 07:01:57;;;;;;;;;;;;;;;21.47;28.25;97415.66;5218414;27;1834;-74
2024/04/21 07:04:22;;;;;;;;;;;;;;;21.07;28.83;97427.47;5190186;27;1669;-74
2024/04/21 07:06:48;;;;;;;;;;;;;;;21.45;28.10;97429.44;5245384;27;1699;-74
2024/04/21 07:09:13;;;;;;;;;;;;;;;21.18;28.65;97433.56;5218135;27;1156;-75
2024/04/21 07:11:38;;;;;;;;;;;;;;;21.29;28.34;97424.72;5218048;27;1111;-74
2024/04/21 07:14:04;;;;;;;;;;;;;;;21.40;28.03;97435.69;5163372;27;1058;-74
2024/04/21 07:16:30;;;;;;;;;;;;;;;21.32;28.29;97433.13;5190977;27;1085;-75
2024/04/21 07:18:55;;;;;;;;;;;;;;;21.13;28.63;97433.34;5218366;27;1008;-74
2024/04/21 07:21:21;;;;;;;;;;;;;;;21.28;28.50;97431.63;5238887;27;1850;-75
2024/04/21 07:23:46;;;;;;;;;;;;;;;21.28;28.52;97437.28;5274627;27;2194;-74
2024/04/21 07:26:12;;;;;;;;;;;;;;;21.44;28.06;97425.03;5352489;26;1093;-74
2024/04/21 07:28:37;;;;;;;;;;;;;;;21.28;28.46;97432.41;5382923;26;1083;-74
2024/04/21 07:31:03;;;;;;;;;;;;;;;21.22;28.55;97433.44;5367643;26;1968;-75
2024/04/21 07:33:28;;;;;;;;;;;;;;;21.24;28.45;97442.28;5353773;26;1014;-75
2024/04/21 07:35:54;;;;;;;;;;;;;;;21.11;28.55;97438.69;5318570;26;947;-74
2024/04/21 07:38:20;;;;;;;;;;;;;;;21.63;28.57;97437.31;5348116;26;916;-74
2024/04/21 07:40:45;;;;;;;;;;;;;;;22.06;28.43;97442.22;5347801;26;1822;-74
2024/04/21 07:43:11;;;;;;;;;;;;;;;22.15;28.72;97447.97;5318819;26;1086;-75
2024/04/21 07:45:37;;;;;;;;;;;;;;;21.71;29.37;97447.94;5313168;27;1146;-74
2024/04/21 07:48:03;;;;;;;;;;;;;;;21.62;29.58;97445.03;5250872;27;1901;-74
2024/04/21 07:50:28;;;;;;;;;;;;;;;21.46;29.65;97448.03;5250872;27;1094;-74
2024/04/21 07:52:54;;;;;;;;;;;;;;;21.54;29.55;97449.34;5279156;27;2171;-74
2024/04/21 07:55:19;;;;;;;;;;;;;;;21.57;29.40;97454.09;5279287;27;1232;-74
2024/04/21 07:57:45;;;;;;;;;;;;;;;21.55;29.31;97446.09;5245258;27;1112;-74
2024/04/21 08:00:10;;;;;;;;;;;;;;;21.51;29.44;97451.06;5244202;27;2121;-75
2024/04/21 08:02:39;;;;;;;;;;;;;;;21.44;29.42;97456.97;5245089;27;987;-75
2024/04/21 08:05:04;;;;;;;;;;;;;;;21.40;29.64;97461.16;5245347;27;968;-75
2024/04/21 08:07:30;;;;;;;;;;;;;;;21.41;29.66;97463.56;5178889;27;1124;-74
2024/04/21 08:09:55;;;;;;;;;;;;;;;21.23;29.70;97458.44;5152163;27;1163;-75
2024/04/21 08:12:21;;;;;;;;;;;;;;;21.42;29.49;97465.13;5148666;27;1188;-73
2024/04/21 08:14:46;;;;;;;;;;;;;;;21.43;29.39;97471.59;5178445;27;1749;-74
2024/04/21 08:17:12;;;;;;;;;;;;;;;21.40;29.38;97461.16;5227257;27;1070;-74
2024/04/21 08:19:37;;;;;;;;;;;;;;;21.29;29.75;97473.59;5217217;27;1252;-74
2024/04/21 08:22:03;;;;;;;;;;;;;;;21.30;29.38;97475.25;5183986;27;1827;-74
2024/04/21 08:24:28;;;;;;;;;;;;;;;21.35;29.36;97470.22;5211838;27;1047;-75
2024/04/21 08:26:54;;;;;;;;;;;;;;;21.35;29.63;97478.72;5211693;27;1113;-74
2024/04/21 08:29:22;;;;;;;;;;;;;;;21.48;28.91;97473.84;5193103;27;1850;-75
2024/04/21 08:31:47;;;;;;;;;;;;;;;21.44;29.11;97482.44;5210957;27;1958;-74
2024/04/21 08:34:13;;;;;;;;;;;;;;;21.59;28.72;97482.75;5211738;27;955;-74
2024/04/21 08:36:38;;;;;;;;;;;;;;;21.48;29.06;97479.50;5184149;27;1127;-75
2024/04/21 08:39:04;;;;;;;;;;;;;;;21.42;29.09;97478.50;5264591;26;1037;-75
2024/04/21 08:41:30;;;;;;;;;;;;;;;21.20;29.44;97481.22;5318093;26;1846;-74
2024/04/21 08:43:55;;;;;;;;;;;;;;;21.10;29.44;97477.50;5347214;26;967;-75
2024/04/21 08:46:21;;;;;;;;;;;;;;;21.65;29.09;97478.06;5351318;26;1826;-74
2024/04/21 08:48:47;;;;;;;;;;;;;;;21.83;29.64;97478.25;5321538;26;966;-75
2024/04/21 08:51:12;;;;;;;;;;;;;;;22.17;29.47;97479.47;5289597;26;1360;-74
2024/04/21 08:53:39;;;;;;;;;;;;;;;21.78;30.13;97478.84;5369831;26;1030;-74
2024/04/21 08:56:07;;;;;;;;;;;;;;;21.81;29.70;97483.59;5331407;26;1125;-75
2024/04/21 08:58:32;;;;;;;;;;;;;;;21.38;30.41;97487.09;5359800;26;1157;-74
2024/04/21 09:00:58;;;;;;;;;;;;;;;21.59;30.04;97474.25;5390805;26;1848;-75
2024/04/21 09:03:23;;;;;;;;;;;;;;;21.35;30.40;97470.22;5456358;26;947;-74
2024/04/21 09:05:52;;;;;;;;;;;;;;;21.54;29.88;97466.34;5317648;26;1269;-74
2024/04/21 09:08:18;;;;;;;;;;;;;;;21.36;30.26;97474.66;5317599;26;1157;-74
2024/04/21 09:10:43;;;;;;;;;;;;;;;21.49;29.97;97481.06;5346882;26;1002;-74
2024/04/21 09:13:09;;;;;;;;;;;;;;;21.36;30.05;97478.28;5346794;26;998;-75
2024/04/21 09:15:34;;;;;;;;;;;;;;;21.51;29.58;97473.72;5311241;26;1885;-74
2024/04/21 09:18:00;;;;;;;;;;;;;;;21.38;29.75;97480.66;5340806;26;1162;-74
2024/04/21 09:20:25;;;;;;;;;;;;;;;21.35;29.78;97487.22;5340900;26;1846;-74
2024/04/21 09:22:51;;;;;;;;;;;;;;;21.19;30.03;97483.28;5317503;26;1941;-74
2024/04/21 09:25:17;;;;;;;;;;;;;;;21.44;29.72;97481.66;5255213;27;1166;-74
2024/04/21 09:27:46;;;;;;;;;;;;;;;21.36;29.69;97483.16;5311924;27;1019;-75
2024/04/21 09:30:11;;;;;;;;;;;;;;;21.46;29.48;97482.00;5283169;27;1735;-74
2024/04/21 09:32:37;;;;;;;;;;;;;;;21.51;29.42;97484.25;5255934;27;986;-74
2024/04/21 09:35:02;;;;;;;;;;;;;;;21.41;29.56;97488.25;5312027;27;1190;-74
2024/04/21 09:37:28;;;;;;;;;;;;;;;21.42;29.38;97487.78;5297756;26;2039;-74
2024/04/21 09:39:53;;;;;;;;;;;;;;;21.47;29.26;97490.03;5381366;26;1103;-74
2024/04/21 09:42:19;;;;;;;;;;;;;;;21.27;29.50;97487.44;5317263;26;1829;-74
2024/04/21 09:44:45;;;;;;;;;;;;;;;21.38;29.38;97483.47;5345936;26;1002;-74
2024/04/21 09:47:13;;;;;;;;;;;;;;;21.54;29.00;97483.31;5317489;26;1033;-75
2024/04/21 09:49:41;;;;;;;;;;;;;;;21.39;29.22;97487.88;5288211;26;1671;-73
2024/04/21 09:52:08;;;;;;;;;;;;;;;21.39;29.35;97494.34;5288768;26;1207;-74
2024/04/21 09:54:33;;;;;;;;;;;;;;;21.12;29.66;97491.19;5317119;26;1251;-74
2024/04/21 09:57:01;;;;;;;;;;;;;;;21.38;29.19;97489.13;5317313;26;1035;-75
2024/04/21 09:59:27;;;;;;;;;;;;;;;21.39;29.00;97493.53;5313784;27;1054;-74
2024/04/21 10:01:52;;;;;;;;;;;;;;;21.32;29.26;97492.53;5257723;27;1826;-75
2024/04/21 10:04:18;;;;;;;;;;;;;;;21.11;29.41;97496.06;5302956;26;1643;-74
2024/04/21 10:06:45;;;;;;;;;;;;;;;21.30;29.00;97492.22;5163006;27;2018;-74
2024/04/21 10:09:10;;;;;;;;;;;;;;;21.13;29.36;97493.56;5186110;27;963;-74
2024/04/21 10:11:36;;;;;;;;;;;;;;;21.09;29.55;97501.38;5185902;27;1354;-75
2024/04/21 10:14:01;;;;;;;;;;;;;;;21.11;29.31;97501.72;5265683;27;878;-74
2024/04/21 10:16:28;;;;;;;;;;;;;;;21.25;29.13;97501.25;5224452;27;1167;-74
2024/04/21 10:19:03;;;;;;;;;;;;;;;21.11;29.47;97496.06;5223061;27;1754;-75
2024/04/21 10:21:29;;;;;;;;;;;;;;;21.26;29.00;97491.50;5249556;27;1882;-74
2024/04/21 10:23:54;;;;;;;;;;;;;;;21.07;29.24;97495.38;5213311;27;894;-74
2024/04/21 10:26:20;;;;;;;;;;;;;;;21.36;28.77;97489.59;5185652;27;1270;-74
2024/04/21 10:28:45;;;;;;;;;;;;;;;21.12;29.13;97486.31;5158685;27;1235;-74
2024/04/21 10:31:11;;;;;;;;;;;;;;;21.26;28.91;97480.19;5237456;27;1944;-74
2024/04/21 10:33:38;;;;;;;;;;;;;;;21.29;28.79;97487.75;5252071;27;1208;-74
2024/04/21 10:36:04;;;;;;;;;;;;;;;21.36;28.76;97488.81;5224900;27;1123;-74
2024/04/21 10:38:30;;;;;;;;;;;;;;;21.44;28.58;97485.25;5251039;27;1572;-74
2024/04/21 10:40:55;;;;;;;;;;;;;;;21.38;28.65;97487.09;5304403;27;1838;-74
2024/04/21 10:43:24;;;;;;;;;;;;;;;21.16;28.94;97480.56;5314017;27;936;-74
2024/04/21 10:45:58;;;;;;;;;;;;;;;21.12;29.04;97486.31;5314151;27;973;-73
2024/04/21 10:48:24;;;;;;;;;;;;;;;21.08;29.05;97482.81;5285696;27;914;-74
2024/04/21 10:50:50;;;;;;;;;;;;;;;20.96;29.23;97481.56;5313305;26;1823;-75
2024/04/21 10:53:15;;;;;;;;;;;;;;;21.15;28.75;97476.94;5314223;27;911;-74
2024/04/21 10:55:41;;;;;;;;;;;;;;;21.61;28.84;97476.63;5401666;26;1097;-74
2024/04/21 10:58:08;;;;;;;;;;;;;;;22.08;28.74;97482.22;5420637;26;960;-74
2024/04/21 11:00:37;;;;;;;;;;;;;;;22.32;28.78;97486.19;5278048;27;2104;-74
2024/04/21 11:03:06;;;;;;;;;;;;;;;22.35;29.18;97485.28;5252452;27;957;-74
2024/04/21 11:05:40;;;;;;;;;;;;;;;21.70;29.97;97480.31;5251914;27;979;-75
2024/04/21 11:08:05;;;;;;;;;;;;;;;21.26;30.64;97485.06;5251788;27;966;-75
2024/04/21 11:10:31;;;;;;;;;;;;;;;21.24;30.49;97485.53;5250141;27;2150;-74
2024/04/21 11:12:57;;;;;;;;;;;;;;;21.45;30.11;97480.41;5251529;27;1285;-74
2024/04/21 11:15:22;;;;;;;;;;;;;;;21.41;29.93;97479.75;5251747;27;1078;-74
2024/04/21 11:17:57;;;;;;;;;;;;;;;21.43;29.80;97488.56;5250506;27;1857;-74
2024/04/21 11:20:23;;;;;;;;;;;;;;;21.28;30.14;97489.00;5223713;27;1829;-74
2024/04/21 11:22:48;;;;;;;;;;;;;;;21.47;29.75;97483.56;5251549;27;983;-74
2024/04/21 11:25:14;;;;;;;;;;;;;;;21.34;30.02;97486.41;5196430;27;1583;-74
2024/04/21 11:27:39;;;;;;;;;;;;;;;21.71;29.27;97481.09;5222924;27;1824;-75
2024/04/21 11:30:05;;;;;;;;;;;;;;;21.32;30.19;97486.88;5178271;27;1869;-75
2024/04/21 11:32:31;;;;;;;;;;;;;;;21.26;29.96;97485.84;5300057;26;1083;-74
2024/04/21 11:34:57;;;;;;;;;;;;;;;21.26;30.02;97480.19;5279433;27;893;-74
2024/04/21 11:37:22;;;;;;;;;;;;;;;21.46;29.48;97473.50;5279321;27;1310;-75
2024/04/21 11:39:48;;;;;;;;;;;;;;;21.35;29.72;97478.72;5278505;27;2093;-74
2024/04/21 11:42:13;;;;;;;;;;;;;;;21.35;29.79;97470.22;5279312;27;1825;-75
2024/04/21 11:44:40;;;;;;;;;;;;;;;21.31;29.72;97471.16;5223052;27;1209;-74
2024/04/21 11:47:06;;;;;;;;;;;;;;;21.44;29.46;97473.94;5307777;27;1220;-74
2024/04/21 11:49:31;;;;;;;;;;;;;;;21.44;29.20;97467.50;5278414;27;1866;-74
2024/04/21 11:51:57;;;;;;;;;;;;;;;21.44;29.28;97459.00;5245557;27;1139;-75
2024/04/21 11:54:22;;;;;;;;;;;;;;;21.35;29.38;97470.22;5218139;27;969;-76
2024/04/21 11:56:50;;;;;;;;;;;;;;;21.43;29.22;97471.59;5245691;27;999;-74
2024/04/21 11:59:15;;;;;;;;;;;;;;;21.53;29.01;97476.88;5244804;27;1714;-74
2024/04/21 12:01:41;;;;;;;;;;;;;;;21.35;29.30;97471.03;5320213;26;1840;-75
2024/04/21 12:04:06;;;;;;;;;;;;;;;21.03;29.74;97460.75;5261923;26;1226;-74
2024/04/21 12:06:32;;;;;;;;;;;;;;;21.27;29.34;97473.28;5370056;26;1300;-75
2024/04/21 12:08:57;;;;;;;;;;;;;;;21.43;28.98;97468.75;5417121;26;1736;-74
2024/04/21 12:11:24;;;;;;;;;;;;;;;21.29;29.10;97473.59;5417812;26;963;-74
2024/04/21 12:13:49;;;;;;;;;;;;;;;21.47;28.93;97472.25;5418101;26;1093;-75
2024/04/21 12:16:15;;;;;;;;;;;;;;;21.16;29.31;97470.03;5417772;26;959;-75
2024/04/21 12:18:40;;;;;;;;;;;;;;;21.25;29.00;97455.97;5417063;26;2074;-74
2024/04/21 12:21:07;;;;;;;;;;;;;;;21.16;29.38;97455.09;5388108;26;1886;-75
2024/04/21 12:23:32;;;;;;;;;;;;;;;21.32;29.01;97458.59;5358987;26;1082;-75
2024/04/21 12:25:58;;;;;;;;;;;;;;;21.28;29.05;97457.88;5388118;26;1137;-74
2024/04/21 12:28:23;;;;;;;;;;;;;;;20.96;29.13;97449.69;5355074;26;1610;-75
2024/04/21 12:30:49;;;;;;;;;;;;;;;21.09;29.34;97441.97;5389436;26;863;-74
2024/04/21 12:33:14;;;;;;;;;;;;;;;21.41;28.67;97440.13;5389487;26;961;-75
2024/04/21 12:35:41;;;;;;;;;;;;;;;20.94;29.52;97444.47;5389199;26;1129;-74
2024/04/21 12:38:07;;;;;;;;;;;;;;;20.96;29.52;97444.03;5363765;26;2043;-74
2024/04/21 12:40:32;;;;;;;;;;;;;;;21.19;29.04;97440.84;5424625;26;1822;-74
2024/04/21 12:42:58;;;;;;;;;;;;;;;21.01;29.26;97443.44;5455201;26;1053;-75
2024/04/21 12:45:23;;;;;;;;;;;;;;;21.24;28.86;97437.44;5394272;26;932;-74
2024/04/21 12:47:49;;;;;;;;;;;;;;;21.27;28.72;97436.50;5424966;26;970;-74
2024/04/21 12:50:15;;;;;;;;;;;;;;;21.14;29.28;97443.41;5394375;26;1596;-74
2024/04/21 12:52:41;;;;;;;;;;;;;;;21.51;29.49;97430.47;5318107;26;971;-74